sensor_id;sensor_type;location;lat;lon;timestamp;P1;durP1;ratioP1;P2;durP2;ratioP2
59127;SDS011;44912;52.754;5.994;2023-05-10T00:01:43;19.13;;;13.65;;
59127;SDS011;44912;52.754;5.994;2023-05-10T00:04:08;17.27;;;12.48;;
59127;SDS011;44912;52.754;5.994;2023-05-10T00:06:34;17.35;;;12.63;;
59127;SDS011;44912;52.754;5.994;2023-05-10T00:08:59;17.92;;;13.05;;
59127;SDS011;44912;52.754;5.994;2023-05-10T00:11:25;17.25;;;12.15;;
59127;SDS011;44912;52.754;5.994;2023-05-10T00:13:50;17.13;;;12.90;;
59127;SDS011;44912;52.754;5.994;2023-05-10T00:16:16;16.48;;;12.07;;
59127;SDS011;44912;52.754;5.994;2023-05-10T00:18:41;16.52;;;11.50;;
59127;SDS011;44912;52.754;5.994;2023-05-10T00:21:07;14.38;;;10.65;;
59127;SDS011;44912;52.754;5.994;2023-05-10T00:23:33;15.43;;;10.80;;
59127;SDS011;44912;52.754;5.994;2023-05-10T00:25:58;13.60;;;9.80;;
59127;SDS011;44912;52.754;5.994;2023-05-10T00:28:24;14.48;;;10.05;;
59127;SDS011;44912;52.754;5.994;2023-05-10T00:30:49;13.35;;;9.63;;
59127;SDS011;44912;52.754;5.994;2023-05-10T00:33:15;13.90;;;9.63;;
59127;SDS011;44912;52.754;5.994;2023-05-10T00:35:40;12.52;;;9.50;;
59127;SDS011;44912;52.754;5.994;2023-05-10T00:38:06;13.55;;;10.07;;
59127;SDS011;44912;52.754;5.994;2023-05-10T00:40:32;15.00;;;9.88;;
59127;SDS011;44912;52.754;5.994;2023-05-10T00:42:57;13.52;;;9.55;;
59127;SDS011;44912;52.754;5.994;2023-05-10T00:45:25;14.13;;;9.80;;
59127;SDS011;44912;52.754;5.994;2023-05-10T00:47:51;13.38;;;9.13;;
59127;SDS011;44912;52.754;5.994;2023-05-10T00:50:20;13.10;;;8.40;;
59127;SDS011;44912;52.754;5.994;2023-05-10T00:52:46;14.18;;;10.05;;
59127;SDS011;44912;52.754;5.994;2023-05-10T00:55:12;13.27;;;8.82;;
59127;SDS011;44912;52.754;5.994;2023-05-10T00:57:38;15.00;;;9.50;;
59127;SDS011;44912;52.754;5.994;2023-05-10T01:00:04;15.52;;;9.40;;
59127;SDS011;44912;52.754;5.994;2023-05-10T01:02:30;15.27;;;9.65;;
59127;SDS011;44912;52.754;5.994;2023-05-10T01:04:56;14.23;;;9.38;;
59127;SDS011;44912;52.754;5.994;2023-05-10T01:07:21;16.15;;;10.48;;
59127;SDS011;44912;52.754;5.994;2023-05-10T01:09:47;15.77;;;10.07;;
59127;SDS011;44912;52.754;5.994;2023-05-10T01:12:12;15.98;;;10.55;;
59127;SDS011;44912;52.754;5.994;2023-05-10T01:14:38;16.08;;;10.43;;
59127;SDS011;44912;52.754;5.994;2023-05-10T01:17:05;16.15;;;9.93;;
59127;SDS011;44912;52.754;5.994;2023-05-10T01:19:32;15.35;;;9.68;;
59127;SDS011;44912;52.754;5.994;2023-05-10T01:22:04;15.18;;;10.40;;
59127;SDS011;44912;52.754;5.994;2023-05-10T01:25:11;15.85;;;9.63;;
59127;SDS011;44912;52.754;5.994;2023-05-10T01:36:16;14.50;;;10.20;;
59127;SDS011;44912;52.754;5.994;2023-05-10T01:44:18;16.13;;;10.85;;
59127;SDS011;44912;52.754;5.994;2023-05-10T01:47:10;15.95;;;10.73;;
59127;SDS011;44912;52.754;5.994;2023-05-10T01:49:47;17.17;;;10.95;;
59127;SDS011;44912;52.754;5.994;2023-05-10T01:52:16;17.10;;;10.75;;
59127;SDS011;44912;52.754;5.994;2023-05-10T01:54:45;16.45;;;10.95;;
59127;SDS011;44912;52.754;5.994;2023-05-10T01:57:18;17.45;;;11.05;;
59127;SDS011;44912;52.754;5.994;2023-05-10T01:59:46;16.63;;;11.30;;
59127;SDS011;44912;52.754;5.994;2023-05-10T02:02:15;16.67;;;11.38;;
59127;SDS011;44912;52.754;5.994;2023-05-10T02:04:43;18.40;;;11.70;;
59127;SDS011;44912;52.754;5.994;2023-05-10T02:07:11;17.58;;;11.00;;
59127;SDS011;44912;52.754;5.994;2023-05-10T02:09:38;17.00;;;10.88;;
59127;SDS011;44912;52.754;5.994;2023-05-10T02:12:04;17.60;;;10.95;;
59127;SDS011;44912;52.754;5.994;2023-05-10T02:14:32;17.23;;;11.57;;
59127;SDS011;44912;52.754;5.994;2023-05-10T02:17:00;19.27;;;11.48;;
59127;SDS011;44912;52.754;5.994;2023-05-10T02:19:29;19.05;;;11.68;;
59127;SDS011;44912;52.754;5.994;2023-05-10T02:21:56;21.95;;;12.40;;
59127;SDS011;44912;52.754;5.994;2023-05-10T02:24:23;19.13;;;13.25;;
59127;SDS011;44912;52.754;5.994;2023-05-10T02:26:50;20.15;;;13.13;;
59127;SDS011;44912;52.754;5.994;2023-05-10T02:29:18;22.55;;;13.15;;
59127;SDS011;44912;52.754;5.994;2023-05-10T02:31:45;20.73;;;13.27;;
59127;SDS011;44912;52.754;5.994;2023-05-10T02:34:11;19.65;;;13.27;;
59127;SDS011;44912;52.754;5.994;2023-05-10T02:36:38;18.45;;;13.68;;
59127;SDS011;44912;52.754;5.994;2023-05-10T02:39:05;21.00;;;14.27;;
59127;SDS011;44912;52.754;5.994;2023-05-10T02:41:34;19.08;;;13.00;;
59127;SDS011;44912;52.754;5.994;2023-05-10T02:44:01;19.20;;;13.70;;
59127;SDS011;44912;52.754;5.994;2023-05-10T02:46:28;19.60;;;13.40;;
59127;SDS011;44912;52.754;5.994;2023-05-10T02:48:54;19.85;;;13.77;;
59127;SDS011;44912;52.754;5.994;2023-05-10T02:51:19;20.63;;;13.80;;
59127;SDS011;44912;52.754;5.994;2023-05-10T02:53:56;21.30;;;14.68;;
59127;SDS011;44912;52.754;5.994;2023-05-10T02:56:28;21.30;;;14.82;;
59127;SDS011;44912;52.754;5.994;2023-05-10T02:58:57;21.67;;;14.57;;
59127;SDS011;44912;52.754;5.994;2023-05-10T03:01:23;22.20;;;15.23;;
59127;SDS011;44912;52.754;5.994;2023-05-10T03:03:49;17.75;;;13.07;;
59127;SDS011;44912;52.754;5.994;2023-05-10T03:06:14;17.35;;;11.60;;
59127;SDS011;44912;52.754;5.994;2023-05-10T03:08:41;17.35;;;11.55;;
59127;SDS011;44912;52.754;5.994;2023-05-10T03:11:22;15.45;;;11.32;;
59127;SDS011;44912;52.754;5.994;2023-05-10T03:14:08;15.45;;;10.20;;
59127;SDS011;44912;52.754;5.994;2023-05-10T03:16:52;16.58;;;11.95;;
59127;SDS011;44912;52.754;5.994;2023-05-10T03:19:46;17.23;;;11.23;;
59127;SDS011;44912;52.754;5.994;2023-05-10T03:22:26;17.20;;;11.48;;
59127;SDS011;44912;52.754;5.994;2023-05-10T03:25:01;15.90;;;11.93;;
59127;SDS011;44912;52.754;5.994;2023-05-10T03:27:31;17.42;;;11.32;;
59127;SDS011;44912;52.754;5.994;2023-05-10T03:29:57;16.80;;;11.82;;
59127;SDS011;44912;52.754;5.994;2023-05-10T03:32:23;16.13;;;11.52;;
59127;SDS011;44912;52.754;5.994;2023-05-10T03:34:49;16.63;;;10.82;;
59127;SDS011;44912;52.754;5.994;2023-05-10T03:37:14;16.60;;;11.38;;
59127;SDS011;44912;52.754;5.994;2023-05-10T03:39:40;16.52;;;11.23;;
59127;SDS011;44912;52.754;5.994;2023-05-10T03:42:05;15.35;;;11.00;;
59127;SDS011;44912;52.754;5.994;2023-05-10T03:44:31;16.83;;;10.93;;
59127;SDS011;44912;52.754;5.994;2023-05-10T03:46:58;20.00;;;12.40;;
59127;SDS011;44912;52.754;5.994;2023-05-10T03:49:23;19.67;;;12.65;;
59127;SDS011;44912;52.754;5.994;2023-05-10T03:51:49;21.73;;;13.75;;
59127;SDS011;44912;52.754;5.994;2023-05-10T03:54:14;20.88;;;13.48;;
59127;SDS011;44912;52.754;5.994;2023-05-10T03:56:40;23.25;;;14.52;;
59127;SDS011;44912;52.754;5.994;2023-05-10T03:59:05;21.67;;;14.00;;
59127;SDS011;44912;52.754;5.994;2023-05-10T04:01:34;20.45;;;13.15;;
59127;SDS011;44912;52.754;5.994;2023-05-10T04:04:00;19.73;;;12.95;;
59127;SDS011;44912;52.754;5.994;2023-05-10T04:06:25;20.20;;;12.73;;
59127;SDS011;44912;52.754;5.994;2023-05-10T04:08:51;19.83;;;12.40;;
59127;SDS011;44912;52.754;5.994;2023-05-10T04:11:16;21.17;;;13.07;;
59127;SDS011;44912;52.754;5.994;2023-05-10T04:13:42;18.52;;;12.50;;
59127;SDS011;44912;52.754;5.994;2023-05-10T04:16:08;19.70;;;12.85;;
59127;SDS011;44912;52.754;5.994;2023-05-10T04:18:33;21.63;;;12.48;;
59127;SDS011;44912;52.754;5.994;2023-05-10T04:20:59;22.88;;;12.95;;
59127;SDS011;44912;52.754;5.994;2023-05-10T04:23:25;21.13;;;12.95;;
59127;SDS011;44912;52.754;5.994;2023-05-10T04:25:51;21.33;;;11.95;;
59127;SDS011;44912;52.754;5.994;2023-05-10T04:28:17;23.73;;;12.95;;
59127;SDS011;44912;52.754;5.994;2023-05-10T04:30:43;22.38;;;12.75;;
59127;SDS011;44912;52.754;5.994;2023-05-10T04:33:08;22.23;;;12.40;;
59127;SDS011;44912;52.754;5.994;2023-05-10T04:35:34;21.55;;;12.10;;
59127;SDS011;44912;52.754;5.994;2023-05-10T04:38:00;22.67;;;12.80;;
59127;SDS011;44912;52.754;5.994;2023-05-10T04:40:25;20.38;;;12.23;;
59127;SDS011;44912;52.754;5.994;2023-05-10T04:42:51;24.42;;;13.30;;
59127;SDS011;44912;52.754;5.994;2023-05-10T04:45:16;25.30;;;12.70;;
59127;SDS011;44912;52.754;5.994;2023-05-10T04:47:42;22.90;;;12.00;;
59127;SDS011;44912;52.754;5.994;2023-05-10T04:50:08;24.83;;;13.02;;
59127;SDS011;44912;52.754;5.994;2023-05-10T04:52:33;24.38;;;12.35;;
59127;SDS011;44912;52.754;5.994;2023-05-10T04:54:59;24.48;;;12.02;;
59127;SDS011;44912;52.754;5.994;2023-05-10T04:57:24;22.63;;;11.73;;
59127;SDS011;44912;52.754;5.994;2023-05-10T04:59:50;24.02;;;12.45;;
59127;SDS011;44912;52.754;5.994;2023-05-10T05:02:16;25.05;;;12.55;;
59127;SDS011;44912;52.754;5.994;2023-05-10T05:04:41;25.95;;;12.85;;
59127;SDS011;44912;52.754;5.994;2023-05-10T05:07:07;29.27;;;14.23;;
59127;SDS011;44912;52.754;5.994;2023-05-10T05:09:32;27.55;;;12.75;;
59127;SDS011;44912;52.754;5.994;2023-05-10T05:11:58;28.20;;;14.35;;
59127;SDS011;44912;52.754;5.994;2023-05-10T05:14:24;28.50;;;13.60;;
59127;SDS011;44912;52.754;5.994;2023-05-10T05:16:52;29.67;;;13.80;;
59127;SDS011;44912;52.754;5.994;2023-05-10T05:19:18;26.00;;;12.85;;
59127;SDS011;44912;52.754;5.994;2023-05-10T05:21:44;31.33;;;14.57;;
59127;SDS011;44912;52.754;5.994;2023-05-10T05:24:09;30.63;;;13.05;;
59127;SDS011;44912;52.754;5.994;2023-05-10T05:26:36;32.30;;;14.10;;
59127;SDS011;44912;52.754;5.994;2023-05-10T05:29:01;31.35;;;15.05;;
59127;SDS011;44912;52.754;5.994;2023-05-10T05:31:27;29.30;;;13.55;;
59127;SDS011;44912;52.754;5.994;2023-05-10T05:33:53;33.22;;;14.02;;
59127;SDS011;44912;52.754;5.994;2023-05-10T05:36:19;33.70;;;14.35;;
59127;SDS011;44912;52.754;5.994;2023-05-10T05:38:44;35.22;;;13.90;;
59127;SDS011;44912;52.754;5.994;2023-05-10T05:41:10;33.80;;;14.18;;
59127;SDS011;44912;52.754;5.994;2023-05-10T05:43:35;33.88;;;13.75;;
59127;SDS011;44912;52.754;5.994;2023-05-10T05:46:01;34.47;;;14.73;;
59127;SDS011;44912;52.754;5.994;2023-05-10T05:48:27;33.17;;;14.70;;
59127;SDS011;44912;52.754;5.994;2023-05-10T05:50:54;34.28;;;14.85;;
59127;SDS011;44912;52.754;5.994;2023-05-10T05:53:21;31.35;;;13.75;;
59127;SDS011;44912;52.754;5.994;2023-05-10T05:55:57;28.73;;;13.80;;
59127;SDS011;44912;52.754;5.994;2023-05-10T05:58:23;32.10;;;13.70;;
59127;SDS011;44912;52.754;5.994;2023-05-10T06:00:50;38.30;;;14.88;;
59127;SDS011;44912;52.754;5.994;2023-05-10T06:03:16;34.67;;;13.57;;
59127;SDS011;44912;52.754;5.994;2023-05-10T06:05:42;33.85;;;13.80;;
59127;SDS011;44912;52.754;5.994;2023-05-10T06:08:08;36.22;;;14.18;;
59127;SDS011;44912;52.754;5.994;2023-05-10T06:10:33;35.85;;;13.75;;
59127;SDS011;44912;52.754;5.994;2023-05-10T06:12:59;32.33;;;13.65;;
59127;SDS011;44912;52.754;5.994;2023-05-10T06:15:25;38.65;;;15.05;;
59127;SDS011;44912;52.754;5.994;2023-05-10T06:17:51;36.05;;;14.98;;
59127;SDS011;44912;52.754;5.994;2023-05-10T06:20:16;39.75;;;14.25;;
59127;SDS011;44912;52.754;5.994;2023-05-10T06:22:42;34.80;;;12.93;;
59127;SDS011;44912;52.754;5.994;2023-05-10T06:25:08;32.33;;;14.18;;
59127;SDS011;44912;52.754;5.994;2023-05-10T06:27:34;36.03;;;13.68;;
59127;SDS011;44912;52.754;5.994;2023-05-10T06:29:59;34.63;;;13.77;;
59127;SDS011;44912;52.754;5.994;2023-05-10T06:32:25;29.98;;;12.98;;
59127;SDS011;44912;52.754;5.994;2023-05-10T06:34:50;29.25;;;13.00;;
59127;SDS011;44912;52.754;5.994;2023-05-10T06:37:16;26.98;;;12.38;;
59127;SDS011;44912;52.754;5.994;2023-05-10T06:39:41;27.33;;;11.75;;
59127;SDS011;44912;52.754;5.994;2023-05-10T06:42:07;22.17;;;10.57;;
59127;SDS011;44912;52.754;5.994;2023-05-10T06:44:33;23.38;;;10.63;;
59127;SDS011;44912;52.754;5.994;2023-05-10T06:46:58;21.75;;;11.65;;
59127;SDS011;44912;52.754;5.994;2023-05-10T06:49:24;22.35;;;10.52;;
59127;SDS011;44912;52.754;5.994;2023-05-10T06:51:49;22.83;;;10.15;;
59127;SDS011;44912;52.754;5.994;2023-05-10T06:54:15;18.52;;;9.63;;
59127;SDS011;44912;52.754;5.994;2023-05-10T06:56:40;20.75;;;10.13;;
59127;SDS011;44912;52.754;5.994;2023-05-10T06:59:06;23.38;;;9.88;;
59127;SDS011;44912;52.754;5.994;2023-05-10T07:01:32;18.02;;;9.05;;
59127;SDS011;44912;52.754;5.994;2023-05-10T07:03:57;18.45;;;9.63;;
59127;SDS011;44912;52.754;5.994;2023-05-10T07:06:23;19.75;;;9.77;;
59127;SDS011;44912;52.754;5.994;2023-05-10T07:08:48;19.00;;;9.40;;
59127;SDS011;44912;52.754;5.994;2023-05-10T07:11:14;18.35;;;9.13;;
59127;SDS011;44912;52.754;5.994;2023-05-10T07:13:39;18.60;;;9.38;;
59127;SDS011;44912;52.754;5.994;2023-05-10T07:16:08;19.05;;;9.75;;
59127;SDS011;44912;52.754;5.994;2023-05-10T07:18:34;18.33;;;9.48;;
59127;SDS011;44912;52.754;5.994;2023-05-10T07:21:00;21.23;;;11.38;;
59127;SDS011;44912;52.754;5.994;2023-05-10T07:23:26;21.45;;;11.40;;
59127;SDS011;44912;52.754;5.994;2023-05-10T07:25:52;19.60;;;11.60;;
59127;SDS011;44912;52.754;5.994;2023-05-10T07:28:17;24.33;;;13.20;;
59127;SDS011;44912;52.754;5.994;2023-05-10T07:30:43;20.50;;;12.50;;
59127;SDS011;44912;52.754;5.994;2023-05-10T07:33:10;19.80;;;13.15;;
59127;SDS011;44912;52.754;5.994;2023-05-10T07:35:37;18.33;;;11.30;;
59127;SDS011;44912;52.754;5.994;2023-05-10T07:38:03;19.67;;;11.45;;
59127;SDS011;44912;52.754;5.994;2023-05-10T07:40:29;20.10;;;11.38;;
59127;SDS011;44912;52.754;5.994;2023-05-10T07:42:55;19.35;;;11.13;;
59127;SDS011;44912;52.754;5.994;2023-05-10T07:45:20;18.25;;;11.05;;
59127;SDS011;44912;52.754;5.994;2023-05-10T07:47:46;17.48;;;11.15;;
59127;SDS011;44912;52.754;5.994;2023-05-10T07:50:12;16.77;;;9.88;;
59127;SDS011;44912;52.754;5.994;2023-05-10T07:52:37;16.52;;;9.95;;
59127;SDS011;44912;52.754;5.994;2023-05-10T07:55:03;16.88;;;10.30;;
59127;SDS011;44912;52.754;5.994;2023-05-10T07:57:28;17.38;;;10.65;;
59127;SDS011;44912;52.754;5.994;2023-05-10T07:59:54;16.38;;;10.23;;
59127;SDS011;44912;52.754;5.994;2023-05-10T08:02:20;18.02;;;11.40;;
59127;SDS011;44912;52.754;5.994;2023-05-10T08:04:45;17.83;;;11.77;;
59127;SDS011;44912;52.754;5.994;2023-05-10T08:07:11;18.48;;;11.55;;
59127;SDS011;44912;52.754;5.994;2023-05-10T08:09:36;19.30;;;12.15;;
59127;SDS011;44912;52.754;5.994;2023-05-10T08:12:02;22.55;;;14.02;;
59127;SDS011;44912;52.754;5.994;2023-05-10T08:14:28;21.67;;;14.82;;
59127;SDS011;44912;52.754;5.994;2023-05-10T08:16:54;22.60;;;14.90;;
59127;SDS011;44912;52.754;5.994;2023-05-10T08:19:20;24.08;;;14.55;;
59127;SDS011;44912;52.754;5.994;2023-05-10T08:21:46;21.42;;;14.57;;
59127;SDS011;44912;52.754;5.994;2023-05-10T08:24:12;20.20;;;12.75;;
59127;SDS011;44912;52.754;5.994;2023-05-10T08:26:38;22.77;;;14.80;;
59127;SDS011;44912;52.754;5.994;2023-05-10T08:29:03;21.45;;;14.48;;
59127;SDS011;44912;52.754;5.994;2023-05-10T08:31:29;23.33;;;15.18;;
59127;SDS011;44912;52.754;5.994;2023-05-10T08:33:55;24.23;;;15.25;;
59127;SDS011;44912;52.754;5.994;2023-05-10T08:36:20;25.00;;;15.45;;
59127;SDS011;44912;52.754;5.994;2023-05-10T08:38:52;28.30;;;16.77;;
59127;SDS011;44912;52.754;5.994;2023-05-10T08:41:22;25.50;;;16.85;;
59127;SDS011;44912;52.754;5.994;2023-05-10T08:43:50;28.60;;;17.58;;
59127;SDS011;44912;52.754;5.994;2023-05-10T08:46:16;31.50;;;18.90;;
59127;SDS011;44912;52.754;5.994;2023-05-10T08:48:44;30.08;;;18.60;;
59127;SDS011;44912;52.754;5.994;2023-05-10T08:51:13;26.75;;;18.17;;
59127;SDS011;44912;52.754;5.994;2023-05-10T08:53:39;29.48;;;18.40;;
59127;SDS011;44912;52.754;5.994;2023-05-10T08:56:05;26.23;;;17.17;;
59127;SDS011;44912;52.754;5.994;2023-05-10T08:58:31;28.52;;;17.77;;
59127;SDS011;44912;52.754;5.994;2023-05-10T09:00:57;26.77;;;17.85;;
59127;SDS011;44912;52.754;5.994;2023-05-10T09:03:24;26.35;;;16.25;;
59127;SDS011;44912;52.754;5.994;2023-05-10T09:05:49;24.38;;;15.20;;
59127;SDS011;44912;52.754;5.994;2023-05-10T09:08:15;24.75;;;16.02;;
59127;SDS011;44912;52.754;5.994;2023-05-10T09:10:42;21.80;;;12.40;;
59127;SDS011;44912;52.754;5.994;2023-05-10T09:13:09;21.48;;;12.90;;
59127;SDS011;44912;52.754;5.994;2023-05-10T09:15:36;22.15;;;14.40;;
59127;SDS011;44912;52.754;5.994;2023-05-10T09:18:02;23.65;;;16.10;;
59127;SDS011;44912;52.754;5.994;2023-05-10T09:20:28;23.77;;;16.92;;
59127;SDS011;44912;52.754;5.994;2023-05-10T09:22:53;24.38;;;17.08;;
59127;SDS011;44912;52.754;5.994;2023-05-10T09:25:19;24.48;;;17.08;;
59127;SDS011;44912;52.754;5.994;2023-05-10T09:27:45;24.65;;;16.73;;
59127;SDS011;44912;52.754;5.994;2023-05-10T09:30:23;25.52;;;16.85;;
59127;SDS011;44912;52.754;5.994;2023-05-10T09:32:50;25.20;;;17.08;;
59127;SDS011;44912;52.754;5.994;2023-05-10T09:35:20;22.75;;;15.98;;
59127;SDS011;44912;52.754;5.994;2023-05-10T09:37:49;25.75;;;16.65;;
59127;SDS011;44912;52.754;5.994;2023-05-10T09:40:23;24.58;;;16.50;;
59127;SDS011;44912;52.754;5.994;2023-05-10T09:43:00;28.88;;;17.75;;
59127;SDS011;44912;52.754;5.994;2023-05-10T09:45:32;25.15;;;17.15;;
59127;SDS011;44912;52.754;5.994;2023-05-10T09:48:00;25.50;;;17.67;;
59127;SDS011;44912;52.754;5.994;2023-05-10T09:50:26;23.77;;;16.20;;
59127;SDS011;44912;52.754;5.994;2023-05-10T09:53:00;24.30;;;15.73;;
59127;SDS011;44912;52.754;5.994;2023-05-10T09:55:41;22.83;;;15.90;;
59127;SDS011;44912;52.754;5.994;2023-05-10T09:58:12;21.65;;;15.73;;
59127;SDS011;44912;52.754;5.994;2023-05-10T10:00:40;22.65;;;15.02;;
59127;SDS011;44912;52.754;5.994;2023-05-10T10:03:07;22.25;;;16.33;;
59127;SDS011;44912;52.754;5.994;2023-05-10T10:05:44;24.80;;;15.68;;
59127;SDS011;44912;52.754;5.994;2023-05-10T10:08:12;21.38;;;14.77;;
59127;SDS011;44912;52.754;5.994;2023-05-10T10:10:38;21.13;;;15.40;;
59127;SDS011;44912;52.754;5.994;2023-05-10T10:13:05;22.20;;;15.40;;
59127;SDS011;44912;52.754;5.994;2023-05-10T10:15:32;20.80;;;16.63;;
59127;SDS011;44912;52.754;5.994;2023-05-10T10:17:58;25.10;;;16.58;;
59127;SDS011;44912;52.754;5.994;2023-05-10T10:20:25;23.90;;;16.23;;
59127;SDS011;44912;52.754;5.994;2023-05-10T10:22:51;21.45;;;15.65;;
59127;SDS011;44912;52.754;5.994;2023-05-10T10:25:18;23.15;;;16.05;;
59127;SDS011;44912;52.754;5.994;2023-05-10T10:27:48;25.67;;;15.93;;
59127;SDS011;44912;52.754;5.994;2023-05-10T10:35:57;26.70;;;17.52;;
59127;SDS011;44912;52.754;5.994;2023-05-10T10:38:24;25.73;;;17.00;;
59127;SDS011;44912;52.754;5.994;2023-05-10T10:41:01;25.50;;;16.00;;
59127;SDS011;44912;52.754;5.994;2023-05-10T10:43:28;23.80;;;16.38;;
59127;SDS011;44912;52.754;5.994;2023-05-10T10:46:13;21.48;;;14.80;;
59127;SDS011;44912;52.754;5.994;2023-05-10T10:48:43;21.92;;;15.40;;
59127;SDS011;44912;52.754;5.994;2023-05-10T10:51:13;23.52;;;15.65;;
59127;SDS011;44912;52.754;5.994;2023-05-10T10:53:39;26.65;;;15.50;;
59127;SDS011;44912;52.754;5.994;2023-05-10T10:56:12;19.95;;;13.25;;
59127;SDS011;44912;52.754;5.994;2023-05-10T10:58:40;21.33;;;13.48;;
59127;SDS011;44912;52.754;5.994;2023-05-10T11:01:16;19.02;;;13.05;;
59127;SDS011;44912;52.754;5.994;2023-05-10T11:06:30;18.58;;;12.18;;
59127;SDS011;44912;52.754;5.994;2023-05-10T11:08:56;18.40;;;11.95;;
59127;SDS011;44912;52.754;5.994;2023-05-10T11:11:22;17.73;;;11.68;;
59127;SDS011;44912;52.754;5.994;2023-05-10T11:13:48;17.25;;;11.70;;
59127;SDS011;44912;52.754;5.994;2023-05-10T11:16:17;17.70;;;12.02;;
59127;SDS011;44912;52.754;5.994;2023-05-10T11:21:23;18.33;;;11.65;;
59127;SDS011;44912;52.754;5.994;2023-05-10T11:23:49;17.90;;;12.25;;
59127;SDS011;44912;52.754;5.994;2023-05-10T11:26:17;15.40;;;11.00;;
59127;SDS011;44912;52.754;5.994;2023-05-10T11:28:47;16.10;;;10.73;;
59127;SDS011;44912;52.754;5.994;2023-05-10T11:31:14;15.20;;;10.75;;
59127;SDS011;44912;52.754;5.994;2023-05-10T11:36:23;15.55;;;10.55;;
59127;SDS011;44912;52.754;5.994;2023-05-10T11:38:51;14.75;;;10.07;;
59127;SDS011;44912;52.754;5.994;2023-05-10T11:41:17;14.65;;;10.38;;
59127;SDS011;44912;52.754;5.994;2023-05-10T11:43:46;14.23;;;10.13;;
59127;SDS011;44912;52.754;5.994;2023-05-10T11:46:14;15.82;;;10.35;;
59127;SDS011;44912;52.754;5.994;2023-05-10T11:48:41;15.13;;;10.05;;
59127;SDS011;44912;52.754;5.994;2023-05-10T11:51:07;14.60;;;9.77;;
59127;SDS011;44912;52.754;5.994;2023-05-10T11:53:33;13.35;;;9.38;;
59127;SDS011;44912;52.754;5.994;2023-05-10T11:56:06;13.00;;;8.90;;
59127;SDS011;44912;52.754;5.994;2023-05-10T11:58:33;14.00;;;8.43;;
59127;SDS011;44912;52.754;5.994;2023-05-10T12:01:00;11.77;;;7.43;;
59127;SDS011;44912;52.754;5.994;2023-05-10T12:03:26;12.00;;;7.72;;
59127;SDS011;44912;52.754;5.994;2023-05-10T12:05:52;11.02;;;6.75;;
59127;SDS011;44912;52.754;5.994;2023-05-10T12:08:20;10.93;;;7.28;;
59127;SDS011;44912;52.754;5.994;2023-05-10T12:10:47;11.60;;;7.97;;
59127;SDS011;44912;52.754;5.994;2023-05-10T12:13:13;13.45;;;7.65;;
59127;SDS011;44912;52.754;5.994;2023-05-10T12:15:40;12.23;;;7.55;;
59127;SDS011;44912;52.754;5.994;2023-05-10T12:18:08;12.50;;;8.25;;
59127;SDS011;44912;52.754;5.994;2023-05-10T12:20:35;13.80;;;9.23;;
59127;SDS011;44912;52.754;5.994;2023-05-10T12:23:01;14.27;;;9.43;;
59127;SDS011;44912;52.754;5.994;2023-05-10T12:25:32;16.90;;;10.95;;
59127;SDS011;44912;52.754;5.994;2023-05-10T12:27:59;18.30;;;10.77;;
59127;SDS011;44912;52.754;5.994;2023-05-10T12:30:29;17.77;;;12.10;;
59127;SDS011;44912;52.754;5.994;2023-05-10T12:32:59;15.50;;;11.75;;
59127;SDS011;44912;52.754;5.994;2023-05-10T12:35:46;16.73;;;11.90;;
59127;SDS011;44912;52.754;5.994;2023-05-10T12:38:26;17.02;;;12.35;;
59127;SDS011;44912;52.754;5.994;2023-05-10T12:40:54;17.80;;;11.80;;
59127;SDS011;44912;52.754;5.994;2023-05-10T12:43:27;17.15;;;11.45;;
59127;SDS011;44912;52.754;5.994;2023-05-10T12:45:53;16.35;;;11.95;;
59127;SDS011;44912;52.754;5.994;2023-05-10T12:48:19;19.08;;;12.85;;
59127;SDS011;44912;52.754;5.994;2023-05-10T12:50:45;20.13;;;12.57;;
59127;SDS011;44912;52.754;5.994;2023-05-10T12:53:12;18.77;;;11.00;;
59127;SDS011;44912;52.754;5.994;2023-05-10T12:55:40;19.10;;;11.50;;
59127;SDS011;44912;52.754;5.994;2023-05-10T12:58:06;16.67;;;11.50;;
59127;SDS011;44912;52.754;5.994;2023-05-10T13:00:31;15.38;;;9.93;;
59127;SDS011;44912;52.754;5.994;2023-05-10T13:02:57;14.55;;;9.77;;
59127;SDS011;44912;52.754;5.994;2023-05-10T13:05:22;14.80;;;10.23;;
59127;SDS011;44912;52.754;5.994;2023-05-10T13:07:48;16.30;;;10.32;;
59127;SDS011;44912;52.754;5.994;2023-05-10T13:10:13;16.02;;;10.40;;
59127;SDS011;44912;52.754;5.994;2023-05-10T13:12:39;13.07;;;9.57;;
59127;SDS011;44912;52.754;5.994;2023-05-10T13:15:05;15.82;;;9.43;;
59127;SDS011;44912;52.754;5.994;2023-05-10T13:17:31;14.18;;;9.25;;
59127;SDS011;44912;52.754;5.994;2023-05-10T13:19:57;11.40;;;7.13;;
59127;SDS011;44912;52.754;5.994;2023-05-10T13:22:22;13.50;;;8.65;;
59127;SDS011;44912;52.754;5.994;2023-05-10T13:24:48;13.80;;;9.30;;
59127;SDS011;44912;52.754;5.994;2023-05-10T13:27:13;13.10;;;9.23;;
59127;SDS011;44912;52.754;5.994;2023-05-10T13:29:39;14.00;;;9.02;;
59127;SDS011;44912;52.754;5.994;2023-05-10T13:32:04;13.23;;;9.30;;
59127;SDS011;44912;52.754;5.994;2023-05-10T13:34:30;14.15;;;9.15;;
59127;SDS011;44912;52.754;5.994;2023-05-10T13:36:55;12.10;;;7.85;;
59127;SDS011;44912;52.754;5.994;2023-05-10T13:39:22;15.27;;;9.45;;
59127;SDS011;44912;52.754;5.994;2023-05-10T13:41:47;13.73;;;8.35;;
59127;SDS011;44912;52.754;5.994;2023-05-10T13:44:13;13.18;;;8.55;;
59127;SDS011;44912;52.754;5.994;2023-05-10T13:46:40;13.57;;;9.57;;
59127;SDS011;44912;52.754;5.994;2023-05-10T13:49:07;13.65;;;9.13;;
59127;SDS011;44912;52.754;5.994;2023-05-10T13:51:33;16.08;;;10.55;;
59127;SDS011;44912;52.754;5.994;2023-05-10T13:53:59;14.60;;;8.18;;
59127;SDS011;44912;52.754;5.994;2023-05-10T13:56:25;11.32;;;7.68;;
59127;SDS011;44912;52.754;5.994;2023-05-10T13:58:50;11.25;;;7.20;;
59127;SDS011;44912;52.754;5.994;2023-05-10T14:01:16;11.43;;;6.75;;
59127;SDS011;44912;52.754;5.994;2023-05-10T14:03:42;11.90;;;7.70;;
59127;SDS011;44912;52.754;5.994;2023-05-10T14:06:07;14.95;;;10.45;;
59127;SDS011;44912;52.754;5.994;2023-05-10T14:08:33;12.90;;;9.27;;
59127;SDS011;44912;52.754;5.994;2023-05-10T14:11:00;12.88;;;8.63;;
59127;SDS011;44912;52.754;5.994;2023-05-10T14:13:25;11.98;;;6.78;;
59127;SDS011;44912;52.754;5.994;2023-05-10T14:15:52;11.52;;;6.78;;
59127;SDS011;44912;52.754;5.994;2023-05-10T14:18:18;10.70;;;6.70;;
59127;SDS011;44912;52.754;5.994;2023-05-10T14:20:44;11.15;;;7.45;;
59127;SDS011;44912;52.754;5.994;2023-05-10T14:23:10;10.02;;;6.60;;
59127;SDS011;44912;52.754;5.994;2023-05-10T14:25:35;12.70;;;7.22;;
59127;SDS011;44912;52.754;5.994;2023-05-10T14:28:01;11.30;;;6.43;;
59127;SDS011;44912;52.754;5.994;2023-05-10T14:30:26;9.38;;;5.85;;
59127;SDS011;44912;52.754;5.994;2023-05-10T14:32:52;9.95;;;5.82;;
59127;SDS011;44912;52.754;5.994;2023-05-10T14:35:19;11.68;;;6.28;;
59127;SDS011;44912;52.754;5.994;2023-05-10T14:37:45;9.48;;;6.05;;
59127;SDS011;44912;52.754;5.994;2023-05-10T14:40:11;12.82;;;7.88;;
59127;SDS011;44912;52.754;5.994;2023-05-10T14:42:37;11.35;;;7.63;;
59127;SDS011;44912;52.754;5.994;2023-05-10T14:45:03;8.95;;;6.18;;
59127;SDS011;44912;52.754;5.994;2023-05-10T14:47:29;9.90;;;5.55;;
59127;SDS011;44912;52.754;5.994;2023-05-10T14:49:55;9.20;;;5.95;;
59127;SDS011;44912;52.754;5.994;2023-05-10T14:52:20;9.93;;;5.57;;
59127;SDS011;44912;52.754;5.994;2023-05-10T14:54:46;7.97;;;4.97;;